Time;durP1;ratioP1;P1;durP2;ratioP2;P2;SDS_P1;SDS_P2;PMS_P1;PMS_P2;Temp;Humidity;BMP_temperature;BMP_pressure;BME280_temperature;BME280_humidity;BME280_pressure;Samples;Min_cycle;Max_cycle;Signal;HPM_P1;HPM_P2
2022/08/08 00:00:58;;;;;;;5.07;2.50;;;;;;;25.11;40.32;102633.16;5055306;28;20514;-84
2022/08/08 00:03:44;;;;;;;6.05;2.22;;;;;;;25.10;40.43;102627.94;5037292;28;20036;-89
2022/08/08 00:06:22;;;;;;;4.38;2.13;;;;;;;25.15;39.85;102630.41;5037632;28;20043;-84
2022/08/08 00:09:00;;;;;;;5.13;2.15;;;;;;;25.13;40.35;102629.97;5037501;28;20060;-84
2022/08/08 00:11:39;;;;;;;6.90;2.40;;;;;;;25.24;40.11;102625.44;5054776;28;20043;-88
2022/08/08 00:14:12;;;;;;;7.88;2.85;;;;;;;25.23;40.12;102629.38;5037150;28;20028;-83
2022/08/08 00:17:12;;;;;;;8.55;3.17;;;;;;;25.22;40.03;102638.16;5036607;28;20035;-94
2022/08/08 00:20:01;;;;;;;7.43;2.80;;;;;;;25.18;39.98;102626.91;5038159;28;20048;-91
2022/08/08 00:22:33;;;;;;;8.83;2.33;;;;;;;25.33;39.93;102625.19;5038301;28;20029;-84
2022/08/08 00:25:11;;;;;;;5.63;2.70;;;;;;;25.13;40.42;102627.19;5037839;28;20258;-94
2022/08/08 00:27:39;;;;;;;3.63;1.92;;;;;;;25.11;40.44;102624.75;5055922;28;20036;-91
2022/08/08 00:30:08;;;;;;;7.25;2.28;;;;;;;25.05;40.36;102625.41;5038061;28;20021;-84
2022/08/08 00:32:42;;;;;;;7.22;2.78;;;;;;;25.03;40.60;102630.53;5038079;28;20103;-92
2022/08/08 00:35:29;;;;;;;5.10;2.13;;;;;;;25.01;40.36;102632.88;5055177;28;20044;-92
2022/08/08 00:38:06;;;;;;;5.20;2.47;;;;;;;24.94;40.63;102630.75;5039385;28;20033;-84
2022/08/08 00:40:40;;;;;;;3.72;2.20;;;;;;;25.06;40.20;102627.84;5037352;28;20450;-85
2022/08/08 00:43:21;;;;;;;6.05;2.40;;;;;;;25.04;40.13;102624.59;5055703;28;20052;-93
2022/08/08 00:46:24;;;;;;;6.05;2.53;;;;;;;24.94;40.20;102622.38;5037969;28;20139;-92
2022/08/08 00:49:08;;;;;;;5.07;2.05;;;;;;;24.96;39.94;102619.19;5037819;28;20039;-95
2022/08/08 00:51:51;;;;;;;7.38;2.95;;;;;;;24.88;40.08;102621.84;5055726;28;20025;-89
2022/08/08 00:54:54;;;;;;;2.95;2.00;;;;;;;24.86;40.29;102615.81;5037326;28;20502;-84
2022/08/08 00:57:26;;;;;;;7.57;2.30;;;;;;;24.83;40.18;102610.13;5036305;28;20037;-84
2022/08/08 00:59:52;;;;;;;9.32;2.90;;;;;;;24.77;40.25;102619.97;5036518;28;20029;-83
2022/08/08 01:02:55;;;;;;;3.80;2.05;;;;;;;24.68;40.33;102619.38;5054041;28;20472;-83
2022/08/08 01:06:05;;;;;;;4.90;2.25;;;;;;;24.57;40.43;102617.16;5035892;28;20032;-84
2022/08/08 01:09:02;;;;;;;10.75;2.70;;;;;;;24.55;40.39;102618.66;5012285;28;20125;-84
2022/08/08 01:12:05;;;;;;;9.27;2.63;;;;;;;24.46;40.59;102618.06;5036682;28;20628;-83
2022/08/08 01:15:06;;;;;;;4.70;2.03;;;;;;;24.42;40.41;102619.97;5037465;28;20549;-87
2022/08/08 01:17:59;;;;;;;5.63;2.55;;;;;;;24.35;40.65;102621.41;5036185;28;20029;-83
2022/08/08 01:20:49;;;;;;;4.95;2.65;;;;;;;24.37;40.40;102614.66;5036022;28;20083;-92
2022/08/08 01:24:13;;;;;;;4.75;2.20;;;;;;;24.27;40.51;102618.78;5036066;28;20490;-92
2022/08/08 01:26:44;;;;;;;6.65;2.30;;;;;;;24.18;40.56;102613.41;5017386;28;20068;-91
2022/08/08 01:29:18;;;;;;;4.93;2.80;;;;;;;24.17;40.77;102603.38;5037827;28;20025;-94
2022/08/08 01:32:35;;;;;;;5.47;2.63;;;;;;;24.08;40.86;102611.94;5036807;28;20091;-83
2022/08/08 01:35:09;;;;;;;8.13;2.80;;;;;;;24.01;41.07;102614.53;5036846;28;20446;-91
2022/08/08 01:37:57;;;;;;;5.65;2.38;;;;;;;23.93;40.93;102621.13;5036292;28;20052;-84
2022/08/08 01:40:32;;;;;;;8.63;3.00;;;;;;;23.86;40.91;102609.75;5037314;28;20025;-84
2022/08/08 01:43:32;;;;;;;4.80;2.30;;;;;;;23.74;41.06;102607.88;5054083;28;20112;-91
2022/08/08 01:46:23;;;;;;;7.68;2.90;;;;;;;23.70;41.14;102612.53;5034824;28;20069;-85
2022/08/08 01:49:17;;;;;;;5.57;2.03;;;;;;;23.65;41.46;102620.34;5053113;28;20025;-84
2022/08/08 01:52:04;;;;;;;8.35;2.58;;;;;;;23.65;41.54;102621.16;5052971;28;20601;-84
2022/08/08 01:54:40;;;;;;;3.53;2.75;;;;;;;23.58;41.29;102618.19;5035117;28;20029;-84
2022/08/08 01:57:06;;;;;;;6.15;2.70;;;;;;;23.56;41.30;102619.69;5053056;28;20517;-85
2022/08/08 02:00:07;;;;;;;5.07;2.42;;;;;;;23.54;41.47;102618.06;5035000;28;20025;-84
2022/08/08 02:03:18;;;;;;;4.45;2.25;;;;;;;23.50;41.88;102614.38;5034918;28;20060;-83
2022/08/08 02:06:02;;;;;;;10.73;3.90;;;;;;;23.50;41.58;102617.16;5041181;28;20033;-84
2022/08/08 02:08:33;;;;;;;7.72;2.70;;;;;;;23.50;41.29;102614.38;5034924;28;20521;-84
2022/08/08 02:11:27;;;;;;;4.38;2.50;;;;;;;23.47;41.40;102617.88;5034851;28;20029;-84
2022/08/08 02:14:11;;;;;;;7.28;2.88;;;;;;;23.45;41.70;102608.25;5034628;28;20033;-84
2022/08/08 02:16:39;;;;;;;6.65;3.00;;;;;;;23.35;41.67;102617.94;5034487;28;20036;-84
2022/08/08 02:19:18;;;;;;;6.30;2.83;;;;;;;23.44;41.37;102613.00;5052418;28;20056;-83
2022/08/08 02:25:04;;;;;;;6.03;2.50;;;;;;;23.06;41.54;102624.66;5052779;28;20244;-83
2022/08/08 02:27:43;;;;;;;5.82;2.63;;;;;;;22.99;41.21;102621.66;5034298;28;20490;-83
2022/08/08 02:30:18;;;;;;;5.70;2.50;;;;;;;22.75;41.81;102619.72;5052099;28;20028;-84
2022/08/08 02:33:12;;;;;;;4.28;2.60;;;;;;;22.75;41.74;102627.22;5034615;28;20479;-84
2022/08/08 02:36:16;;;;;;;5.55;2.85;;;;;;;22.71;41.86;102624.34;5013602;28;20077;-84
2022/08/08 02:39:01;;;;;;;4.63;2.75;;;;;;;22.67;42.09;102629.00;5025873;28;20042;-83
2022/08/08 02:41:58;;;;;;;8.13;3.35;;;;;;;22.64;42.22;102615.78;5012905;28;20029;-83
2022/08/08 02:44:47;;;;;;;5.95;2.75;;;;;;;22.61;42.38;102622.06;5011476;28;20030;-83
2022/08/08 02:47:55;;;;;;;9.13;3.10;;;;;;;22.64;42.30;102622.16;5011194;28;20152;-84
2022/08/08 02:50:38;;;;;;;4.80;3.05;;;;;;;22.65;42.27;102620.97;5012776;28;20092;-84
2022/08/08 02:53:19;;;;;;;6.05;2.60;;;;;;;22.62;42.32;102618.91;5012652;28;20076;-89
2022/08/08 02:56:20;;;;;;;6.18;2.90;;;;;;;22.53;42.75;102625.78;5012698;28;20030;-83
2022/08/08 02:59:23;;;;;;;6.00;3.33;;;;;;;22.49;42.94;102622.06;5011063;28;20034;-83
2022/08/08 03:02:01;;;;;;;4.82;2.67;;;;;;;22.49;42.85;102627.63;5011262;28;20076;-83
2022/08/08 03:04:32;;;;;;;6.07;3.47;;;;;;;22.30;43.06;102639.34;5012001;28;20101;-84
2022/08/08 03:07:19;;;;;;;7.20;3.47;;;;;;;22.16;43.88;102634.13;5011297;28;20075;-84
2022/08/08 03:10:39;;;;;;;4.20;3.00;;;;;;;22.23;43.55;102637.16;5011036;28;20060;-86
2022/08/08 03:13:26;;;;;;;5.35;2.95;;;;;;;22.18;43.61;102631.00;5012278;28;20026;-83
2022/08/08 03:16:11;;;;;;;10.48;3.85;;;;;;;22.09;44.07;102631.09;5010909;28;20030;-84
2022/08/08 03:18:36;;;;;;;6.95;3.85;;;;;;;22.20;43.54;102635.03;5010881;28;20030;-83
2022/08/08 03:21:01;;;;;;;7.50;3.10;;;;;;;22.09;43.87;102631.91;5011211;28;20053;-92
2022/08/08 03:23:29;;;;;;;6.82;3.50;;;;;;;22.04;43.77;102631.28;5011205;28;20034;-83
2022/08/08 03:25:56;;;;;;;7.13;3.30;;;;;;;21.96;44.20;102634.97;5011622;28;20029;-89
2022/08/08 03:28:44;;;;;;;8.70;3.80;;;;;;;21.81;44.82;102639.25;5011471;28;20026;-83
2022/08/08 03:33:56;;;;;;;6.90;3.38;;;;;;;21.82;44.45;102638.88;5019254;28;20095;-85
2022/08/08 03:36:23;;;;;;;5.38;4.03;;;;;;;21.78;44.36;102643.53;5052190;28;20059;-84
2022/08/08 03:38:51;;;;;;;6.28;3.78;;;;;;;21.78;44.45;102640.75;5051731;28;20027;-83
2022/08/08 03:41:17;;;;;;;9.65;4.40;;;;;;;21.75;44.67;102651.75;5051836;28;20109;-83
2022/08/08 03:43:56;;;;;;;9.52;5.07;;;;;;;21.56;45.63;102657.81;5051766;28;20025;-84
2022/08/08 03:46:22;;;;;;;10.27;3.78;;;;;;;21.62;45.03;102655.66;5051855;28;20079;-84
2022/08/08 03:49:01;;;;;;;15.90;4.45;;;;;;;21.57;45.19;102663.03;5033592;28;20422;-84
2022/08/08 03:51:28;;;;;;;7.83;4.07;;;;;;;21.52;45.09;102660.47;5058092;28;20059;-84
2022/08/08 03:53:54;;;;;;;6.47;4.30;;;;;;;21.45;45.35;102662.97;5054516;28;20108;-84
2022/08/08 03:56:21;;;;;;;6.75;4.22;;;;;;;21.46;45.28;102669.34;5054233;28;20025;-84
2022/08/08 03:58:51;;;;;;;8.05;4.70;;;;;;;21.33;45.62;102662.94;5036492;28;20444;-84
2022/08/08 04:01:18;;;;;;;10.95;4.90;;;;;;;21.21;45.92;102665.63;5036463;28;20029;-84
2022/08/08 04:03:47;;;;;;;13.90;5.00;;;;;;;21.17;46.37;102670.25;5036544;28;20049;-86
2022/08/08 04:06:13;;;;;;;9.13;4.68;;;;;;;21.19;46.26;102665.97;5036454;28;20025;-83
2022/08/08 04:08:39;;;;;;;6.82;4.47;;;;;;;21.24;46.37;102671.34;5036360;28;20021;-84
2022/08/08 04:11:05;;;;;;;7.95;5.22;;;;;;;21.17;46.36;102664.69;5036804;28;20434;-84
2022/08/08 04:13:31;;;;;;;9.20;5.80;;;;;;;21.24;46.29;102667.75;5037014;28;20047;-84
2022/08/08 04:15:58;;;;;;;10.10;4.75;;;;;;;21.22;46.31;102667.25;5054695;28;20531;-83
2022/08/08 04:18:23;;;;;;;9.82;5.30;;;;;;;21.24;46.26;102664.97;5037004;28;20025;-84
2022/08/08 04:20:49;;;;;;;9.43;4.75;;;;;;;21.42;45.87;102671.22;5036744;28;20108;-83
2022/08/08 04:23:15;;;;;;;10.48;5.57;;;;;;;21.38;45.95;102675.81;5036795;28;20043;-91
2022/08/08 04:25:41;;;;;;;14.43;6.10;;;;;;;21.33;46.28;102671.28;5054539;28;20104;-84
2022/08/08 04:28:07;;;;;;;7.85;5.45;;;;;;;21.31;46.17;102681.91;5036700;28;20021;-83
2022/08/08 04:30:34;;;;;;;8.00;6.13;;;;;;;21.24;46.33;102676.06;5054168;28;20450;-92
2022/08/08 04:32:59;;;;;;;13.18;5.63;;;;;;;21.32;46.25;102683.56;5036510;28;20029;-83
2022/08/08 04:35:25;;;;;;;11.00;5.85;;;;;;;21.35;45.94;102688.44;5017657;28;20038;-84
2022/08/08 04:37:52;;;;;;;13.73;5.70;;;;;;;21.22;46.58;102689.47;5013254;28;20477;-84
2022/08/08 04:40:19;;;;;;;13.73;6.15;;;;;;;21.25;46.39;102694.38;5013448;28;20034;-84
2022/08/08 04:42:45;;;;;;;6.57;5.47;;;;;;;21.18;46.43;102683.81;5013347;28;20033;-83
2022/08/08 04:45:11;;;;;;;10.27;6.05;;;;;;;21.27;46.29;102689.28;5014751;28;20030;-83
2022/08/08 04:47:37;;;;;;;9.32;5.50;;;;;;;21.28;46.55;102693.72;5013315;28;20040;-84
2022/08/08 04:50:03;;;;;;;13.10;6.65;;;;;;;21.24;46.53;102689.97;5013344;28;20022;-83
2022/08/08 04:52:29;;;;;;;11.60;6.45;;;;;;;21.14;46.82;102695.91;5014475;28;20057;-83
2022/08/08 04:54:54;;;;;;;14.95;5.78;;;;;;;21.18;46.81;102697.69;5013965;28;20065;-83
2022/08/08 04:57:20;;;;;;;15.45;5.53;;;;;;;21.14;46.94;102693.94;5013116;28;20125;-90
2022/08/08 04:59:46;;;;;;;21.45;8.35;;;;;;;21.06;46.97;102690.09;5029308;28;20034;-86
2022/08/08 05:02:12;;;;;;;13.82;6.07;;;;;;;21.02;47.51;102697.47;5012891;28;20057;-83
2022/08/08 05:04:38;;;;;;;10.73;5.50;;;;;;;21.10;47.39;102700.53;5014007;28;20076;-83
2022/08/08 05:07:04;;;;;;;15.07;6.20;;;;;;;21.18;47.02;102700.47;5012880;28;20038;-83
2022/08/08 05:09:29;;;;;;;11.50;6.20;;;;;;;21.06;47.47;102700.38;5013845;28;20068;-91
2022/08/08 05:11:55;;;;;;;13.30;6.07;;;;;;;21.13;47.49;102697.06;5014055;28;20072;-90
2022/08/08 05:14:21;;;;;;;12.88;5.60;;;;;;;21.17;47.34;102706.38;5014091;28;20112;-84
2022/08/08 05:16:46;;;;;;;16.75;6.90;;;;;;;21.14;47.49;102709.81;5012594;28;20061;-83
2022/08/08 05:19:12;;;;;;;19.35;7.60;;;;;;;21.08;47.82;102705.59;5012995;28;20041;-83
2022/08/08 05:21:41;;;;;;;18.63;7.50;;;;;;;21.11;48.03;102714.09;5012617;28;20566;-82
2022/08/08 05:24:08;;;;;;;13.23;6.45;;;;;;;21.17;47.56;102709.16;5014204;28;20054;-83
2022/08/08 05:26:35;;;;;;;11.77;6.07;;;;;;;21.32;47.21;102716.94;5014137;28;20065;-84
2022/08/08 05:29:07;;;;;;;10.70;6.22;;;;;;;21.21;47.65;102710.91;5012565;28;20041;-83
2022/08/08 05:31:34;;;;;;;13.07;6.30;;;;;;;21.16;48.12;102722.25;5012548;28;20022;-83
2022/08/08 05:34:04;;;;;;;18.92;7.22;;;;;;;21.03;48.50;102718.56;5012434;28;20077;-83
2022/08/08 05:36:34;;;;;;;9.13;6.75;;;;;;;21.07;48.61;102718.69;5012740;28;20034;-82
2022/08/08 05:39:04;;;;;;;10.02;6.07;;;;;;;21.10;48.62;102720.00;5012653;28;20030;-83
2022/08/08 05:41:34;;;;;;;14.30;6.32;;;;;;;21.02;49.20;102718.91;5012804;28;20026;-90
2022/08/08 05:44:12;;;;;;;19.80;7.80;;;;;;;21.15;48.68;102717.00;5012700;28;20033;-83
2022/08/08 05:46:40;;;;;;;25.05;11.52;;;;;;;21.15;48.75;102715.03;5012580;28;20073;-83
2022/08/08 05:49:07;;;;;;;17.13;7.50;;;;;;;21.31;48.60;102710.56;5045537;28;20109;-85
2022/08/08 05:51:33;;;;;;;13.68;8.65;;;;;;;21.18;48.85;102717.16;5013592;28;20029;-83
2022/08/08 05:53:59;;;;;;;15.27;9.82;;;;;;;21.38;48.62;102718.31;5012338;28;20036;-91
2022/08/08 05:56:26;;;;;;;13.85;12.43;;;;;;;21.42;48.54;102716.50;5029071;28;20044;-95
2022/08/08 05:59:06;;;;;;;19.15;17.58;;;;;;;21.66;48.57;102710.25;5045579;28;20033;-83
2022/08/08 06:01:36;;;;;;;12.73;7.25;;;;;;;21.68;48.64;102715.47;5012183;28;20140;-82
2022/08/08 06:04:03;;;;;;;18.35;16.33;;;;;;;21.77;48.46;102716.22;5045264;28;20037;-82
2022/08/08 06:06:30;;;;;;;18.05;16.65;;;;;;;21.75;48.49;102718.50;5045165;28;20503;-84
2022/08/08 06:08:59;;;;;;;20.58;12.98;;;;;;;21.72;48.92;102724.78;5045178;28;20423;-84
2022/08/08 06:11:27;;;;;;;13.07;6.63;;;;;;;21.88;48.38;102723.78;5044723;28;20030;-83
2022/08/08 06:13:53;;;;;;;12.15;11.15;;;;;;;21.93;48.29;102722.78;5011000;28;20113;-83
2022/08/08 06:16:20;;;;;;;9.70;5.85;;;;;;;21.92;48.60;102726.72;5011847;28;20116;-84
2022/08/08 06:18:46;;;;;;;10.95;6.05;;;;;;;22.06;48.26;102732.75;5012380;28;20033;-91
2022/08/08 06:21:14;;;;;;;24.63;7.80;;;;;;;22.03;48.59;102741.00;5013903;28;20021;-83
2022/08/08 06:23:40;;;;;;;10.98;5.68;;;;;;;22.09;48.44;102729.34;5012971;28;20050;-86
2022/08/08 06:26:09;;;;;;;12.48;6.25;;;;;;;22.02;49.02;102737.41;5011897;28;20026;-83
2022/08/08 06:28:50;;;;;;;10.45;5.13;;;;;;;22.08;48.90;102736.06;5011781;28;20036;-83
2022/08/08 06:31:22;;;;;;;7.95;4.93;;;;;;;22.08;49.01;102736.06;5011429;28;20451;-92
2022/08/08 06:33:53;;;;;;;11.20;6.00;;;;;;;22.37;48.13;102732.31;5016778;28;20555;-90
2022/08/08 06:36:49;;;;;;;11.80;7.15;;;;;;;22.37;48.48;102739.84;5052844;28;20446;-84
2022/08/08 06:39:16;;;;;;;8.15;6.47;;;;;;;22.46;48.20;102743.34;5026380;28;20033;-84
2022/08/08 06:41:57;;;;;;;12.25;10.52;;;;;;;22.41;48.75;102749.13;5052882;28;20027;-83
2022/08/08 06:44:24;;;;;;;10.27;8.90;;;;;;;22.29;49.00;102746.31;5052030;28;20033;-90
2022/08/08 06:46:51;;;;;;;14.70;13.10;;;;;;;22.47;48.63;102744.16;5052871;28;20045;-83
2022/08/08 06:49:18;;;;;;;13.18;6.78;;;;;;;22.71;47.95;102739.41;5034800;28;20060;-83
2022/08/08 06:51:44;;;;;;;64.53;13.43;;;;;;;22.93;47.74;102748.50;5052497;28;20021;-87
2022/08/08 06:54:10;;;;;;;11.57;10.43;;;;;;;23.05;47.42;102742.09;5034333;28;20477;-83
2022/08/08 06:56:36;;;;;;;13.35;11.50;;;;;;;23.06;47.68;102746.53;5034921;28;20059;-82
2022/08/08 06:59:02;;;;;;;13.43;9.27;;;;;;;23.29;47.41;102744.84;5034585;28;20499;-84
2022/08/08 07:01:50;;;;;;;20.25;14.10;;;;;;;23.33;47.49;102739.38;5050437;28;20025;-83
2022/08/08 07:04:24;;;;;;;17.67;13.68;;;;;;;23.41;47.36;102744.00;5052334;28;20036;-83
2022/08/08 07:07:00;;;;;;;10.45;9.55;;;;;;;23.40;47.76;102736.81;5034650;28;20033;-83
2022/08/08 07:09:36;;;;;;;10.95;9.65;;;;;;;23.25;47.90;102741.13;5056147;28;20490;-83
2022/08/08 07:12:06;;;;;;;9.07;7.07;;;;;;;23.67;46.91;102743.63;5074422;28;20043;-83
2022/08/08 07:14:55;;;;;;;9.23;8.32;;;;;;;23.79;46.87;102740.75;5073993;28;20523;-84
2022/08/08 07:17:24;;;;;;;11.95;10.35;;;;;;;23.88;47.07;102740.59;5074129;28;20035;-83
2022/08/08 07:20:01;;;;;;;12.57;6.13;;;;;;;23.90;46.98;102739.09;5092527;28;20020;-84
2022/08/08 07:23:13;;;;;;;13.07;9.80;;;;;;;24.07;46.66;102749.94;5074513;28;20020;-91
2022/08/08 07:25:41;;;;;;;10.38;9.52;;;;;;;24.32;46.25;102752.59;5076876;28;20030;-84
2022/08/08 07:28:10;;;;;;;12.05;8.13;;;;;;;24.42;46.02;102754.09;5078374;28;20020;-84
2022/08/08 07:30:37;;;;;;;16.48;9.30;;;;;;;24.33;46.57;102752.28;5096453;28;20554;-84
2022/08/08 07:33:04;;;;;;;8.23;4.00;;;;;;;24.55;46.08;102755.59;5078220;28;20032;-84
2022/08/08 07:35:30;;;;;;;9.50;8.38;;;;;;;24.83;45.68;102753.53;5058267;28;20056;-94
2022/08/08 07:37:57;;;;;;;9.40;7.13;;;;;;;24.77;45.83;102754.16;5054829;28;20029;-86
2022/08/08 07:40:25;;;;;;;6.75;4.88;;;;;;;24.80;45.84;102757.06;5054469;28;20032;-84
2022/08/08 07:42:53;;;;;;;8.32;7.05;;;;;;;25.05;45.28;102763.25;5054870;28;20033;-85
2022/08/08 07:45:22;;;;;;;15.32;5.80;;;;;;;25.25;44.63;102766.13;5054693;28;20073;-84
2022/08/08 07:47:47;;;;;;;7.43;3.03;;;;;;;25.06;45.14;102767.69;5054936;28;20494;-84
2022/08/08 07:50:13;;;;;;;11.73;3.58;;;;;;;25.33;44.58;102765.09;5054656;28;20290;-84
2022/08/08 07:52:45;;;;;;;13.13;5.95;;;;;;;24.94;44.80;102761.34;5054420;28;20021;-84
2022/08/08 07:55:30;;;;;;;12.95;3.50;;;;;;;25.30;43.96;102763.81;5054387;28;20041;-84
2022/08/08 07:58:14;;;;;;;9.27;5.40;;;;;;;25.18;44.24;102773.16;5016686;28;20124;-86
2022/08/08 08:00:51;;;;;;;7.53;3.22;;;;;;;25.22;43.60;102772.41;5014734;28;20040;-90
2022/08/08 08:04:02;;;;;;;11.02;4.47;;;;;;;25.35;43.31;102777.53;5015811;28;20026;-82
2022/08/08 08:06:32;;;;;;;5.35;3.60;;;;;;;25.58;42.82;102782.44;4997052;28;20033;-87
2022/08/08 08:09:22;;;;;;;;;;;;;;;25.58;42.83;102782.44;5014115;28;20025;-94
2022/08/08 08:11:49;;;;;;;7.78;2.47;;;;;;;25.84;42.42;102784.59;5027549;28;19917;-84
2022/08/08 08:14:42;;;;;;;8.80;3.17;;;;;;;25.81;42.41;102786.16;5034072;28;20079;-83
2022/08/08 08:17:11;;;;;;;8.68;2.45;;;;;;;26.03;42.51;102784.59;5034518;28;20036;-85
2022/08/08 08:19:38;;;;;;;8.20;2.35;;;;;;;25.87;42.32;102784.69;5034364;28;20029;-82
2022/08/08 08:22:04;;;;;;;9.35;2.50;;;;;;;25.98;42.02;102782.88;5034828;28;20033;-84
2022/08/08 08:24:30;;;;;;;26.40;3.50;;;;;;;25.62;42.27;102786.94;5033796;28;20040;-83
2022/08/08 08:26:55;;;;;;;8.10;2.58;;;;;;;25.84;41.84;102785.41;5035655;28;20025;-84
2022/08/08 08:29:21;;;;;;;7.97;2.47;;;;;;;26.39;40.64;102776.91;5034260;28;20041;-90
2022/08/08 08:31:47;;;;;;;9.77;2.63;;;;;;;26.59;40.26;102772.81;5036064;28;20143;-81
2022/08/08 08:34:12;;;;;;;5.53;2.10;;;;;;;26.36;40.87;102771.97;5047448;28;20123;-82
2022/08/08 08:36:39;;;;;;;9.80;2.40;;;;;;;26.80;40.14;102778.78;5074483;28;20509;-81
2022/08/08 08:39:05;;;;;;;9.48;2.65;;;;;;;26.99;39.79;102772.28;5051118;28;20507;-87
2022/08/08 08:41:32;;;;;;;12.85;3.42;;;;;;;27.15;39.25;102765.75;5042288;28;20035;-87
2022/08/08 08:43:58;;;;;;;12.93;3.03;;;;;;;27.15;39.86;102762.94;5037657;28;20031;-79
2022/08/08 08:46:26;;;;;;;15.98;3.45;;;;;;;27.52;39.53;102765.84;5038106;28;20082;-83
2022/08/08 08:48:53;;;;;;;5.43;2.55;;;;;;;27.67;39.11;102764.03;5038304;28;20038;-80
2022/08/08 08:51:23;;;;;;;5.38;2.67;;;;;;;27.49;39.53;102772.22;5056424;28;20510;-84
2022/08/08 08:53:53;;;;;;;12.68;2.88;;;;;;;27.55;39.03;102765.88;5077572;28;20047;-82
2022/08/08 08:56:21;;;;;;;10.70;2.67;;;;;;;27.46;38.90;102768.19;5082659;28;20036;-83
2022/08/08 08:58:48;;;;;;;3.90;1.80;;;;;;;27.56;38.62;102764.69;5063363;28;20054;-84
2022/08/08 09:01:17;;;;;;;5.00;1.92;;;;;;;27.70;38.29;102764.09;5073568;28;20028;-89
2022/08/08 09:03:46;;;;;;;6.90;1.85;;;;;;;27.85;38.19;102767.88;5084709;28;20036;-86
2022/08/08 09:06:20;;;;;;;7.35;2.33;;;;;;;27.98;37.62;102757.19;5066283;28;20032;-84
2022/08/08 09:08:53;;;;;;;4.80;2.10;;;;;;;28.04;37.08;102764.09;5074805;28;20012;-85
2022/08/08 09:11:19;;;;;;;7.80;2.47;;;;;;;28.19;37.39;102755.44;5059153;28;20028;-82
2022/08/08 09:13:46;;;;;;;8.48;2.13;;;;;;;28.28;36.92;102762.72;5062927;28;20048;-81
2022/08/08 09:16:11;;;;;;;14.80;2.78;;;;;;;28.30;36.32;102768.81;5079310;28;20035;-85
2022/08/08 09:18:42;;;;;;;8.10;1.83;;;;;;;28.30;35.53;102768.81;5064074;28;20395;-86
2022/08/08 09:21:08;;;;;;;3.55;1.48;;;;;;;28.36;34.52;102765.25;5062954;28;20559;-82
2022/08/08 09:23:35;;;;;;;10.45;2.28;;;;;;;28.45;34.35;102759.31;5083818;28;20047;-86
2022/08/08 09:26:08;;;;;;;6.10;1.67;;;;;;;28.51;33.83;102754.94;5080165;28;20077;-87
2022/08/08 09:28:38;;;;;;;3.83;1.20;;;;;;;28.68;33.28;102761.91;5078213;28;20098;-83
2022/08/08 09:31:41;;;;;;;4.63;1.23;;;;;;;28.42;32.62;102760.91;5067010;28;20012;-86
2022/08/08 09:34:07;;;;;;;71.75;9.18;;;;;;;28.56;32.55;102753.75;5053609;28;20491;-84
2022/08/08 09:36:35;;;;;;;5.97;1.73;;;;;;;28.01;33.26;102748.00;5041931;28;20037;-90
2022/08/08 09:39:04;;;;;;;5.47;1.55;;;;;;;28.78;32.27;102746.31;5048197;28;20040;-88
2022/08/08 09:41:41;;;;;;;6.22;1.42;;;;;;;28.84;32.67;102739.13;5036336;28;20051;-79
2022/08/08 09:44:28;;;;;;;5.45;2.30;;;;;;;28.68;32.39;102736.59;5037983;28;20037;-79
2022/08/08 09:46:56;;;;;;;5.30;1.10;;;;;;;28.66;32.44;102739.81;5039970;28;20029;-79
2022/08/08 09:49:22;;;;;;;12.65;2.35;;;;;;;28.84;32.43;102741.94;5041308;28;20392;-78
2022/08/08 09:51:53;;;;;;;5.10;1.42;;;;;;;28.85;32.22;102746.34;5039176;28;20099;-83
2022/08/08 09:54:24;;;;;;;6.00;1.73;;;;;;;28.95;31.74;102738.03;5036820;28;20120;-81
2022/08/08 09:56:54;;;;;;;6.00;1.55;;;;;;;29.26;31.06;102722.53;5040549;28;20037;-81
2022/08/08 09:59:30;;;;;;;5.40;1.10;;;;;;;29.52;30.83;102726.28;5040842;28;20659;-84
2022/08/08 10:01:58;;;;;;;6.53;1.70;;;;;;;29.48;30.39;102720.63;5036723;28;20068;-84
2022/08/08 10:04:26;;;;;;;7.10;1.63;;;;;;;29.62;30.62;102722.69;5041586;28;20069;-86
2022/08/08 10:06:52;;;;;;;3.83;1.17;;;;;;;29.61;30.47;102720.28;5034238;28;20108;-84
2022/08/08 10:09:32;;;;;;;3.58;1.10;;;;;;;29.70;30.16;102723.50;5028803;28;20041;-86
2022/08/08 10:12:03;;;;;;;6.65;1.73;;;;;;;29.70;30.21;102729.16;5017709;28;20069;-82
2022/08/08 10:14:37;;;;;;;8.80;1.27;;;;;;;29.22;30.47;102727.31;5023862;28;20096;-86
2022/08/08 10:17:08;;;;;;;5.10;1.20;;;;;;;29.61;30.53;102732.34;5040577;28;20546;-82
2022/08/08 10:19:40;;;;;;;8.77;1.88;;;;;;;29.86;30.10;102728.81;5038403;28;20030;-86
2022/08/08 10:22:08;;;;;;;7.25;1.23;;;;;;;29.87;29.51;102727.59;5041444;28;20037;-83
2022/08/08 10:24:35;;;;;;;5.18;1.42;;;;;;;29.76;29.54;102731.19;5043575;28;20042;-85
2022/08/08 10:27:05;;;;;;;3.50;0.93;;;;;;;29.36;29.68;102732.22;5039166;28;20044;-84
2022/08/08 10:29:38;;;;;;;4.32;1.05;;;;;;;29.48;29.92;102725.44;5044638;28;20049;-85
2022/08/08 10:34:59;;;;;;;3.70;1.00;;;;;;;29.93;28.63;102731.66;5059833;28;20062;-86
2022/08/08 10:37:28;;;;;;;2.38;0.90;;;;;;;30.28;28.30;102736.53;5061598;28;20036;-84
2022/08/08 10:39:55;;;;;;;3.60;1.10;;;;;;;30.02;28.56;102734.88;5056608;28;20040;-81
2022/08/08 10:42:33;;;;;;;5.05;1.10;;;;;;;30.11;28.40;102738.16;5073776;28;20055;-89
2022/08/08 10:45:04;;;;;;;4.18;1.02;;;;;;;30.12;27.99;102736.94;5060915;28;20032;-92
2022/08/08 10:47:30;;;;;;;4.10;1.50;;;;;;;30.23;27.76;102734.94;5081330;28;20067;-87
2022/08/08 10:49:58;;;;;;;6.93;1.55;;;;;;;30.31;27.94;102739.38;5082170;28;20442;-89
2022/08/08 10:52:32;;;;;;;3.63;1.17;;;;;;;30.43;27.72;102738.16;5069680;28;20020;-85
2022/08/08 10:55:16;;;;;;;7.70;2.22;;;;;;;30.86;27.32;102732.53;5076256;28;20032;-87
2022/08/08 10:57:49;;;;;;;5.30;1.10;;;;;;;30.82;27.54;102721.22;5060471;28;20021;-89
2022/08/08 11:00:25;;;;;;;5.50;1.30;;;;;;;30.87;26.91;102725.66;5086213;28;20035;-85
2022/08/08 11:02:55;;;;;;;5.15;1.00;;;;;;;30.31;27.91;102718.84;5063532;28;20024;-91
2022/08/08 11:05:21;;;;;;;4.13;1.30;;;;;;;30.52;28.02;102716.00;5078660;28;20129;-92
2022/08/08 11:07:53;;;;;;;3.42;1.23;;;;;;;31.08;27.15;102719.19;5084019;28;20039;-90
2022/08/08 11:10:23;;;;;;;3.70;0.95;;;;;;;31.03;26.76;102716.75;5077253;28;20483;-92
2022/08/08 11:12:55;;;;;;;20.45;1.70;;;;;;;31.08;26.15;102722.00;5081666;28;20016;-87
2022/08/08 11:15:27;;;;;;;4.80;1.30;;;;;;;31.22;26.28;102719.16;5076026;28;20115;-85
2022/08/08 11:17:53;;;;;;;5.10;1.15;;;;;;;31.55;25.81;102719.81;5059336;28;20788;-91
2022/08/08 11:20:22;;;;;;;4.80;1.08;;;;;;;31.49;26.30;102725.88;5061480;28;20401;-91
2022/08/08 11:22:58;;;;;;;6.45;1.67;;;;;;;31.80;26.04;102712.03;5087003;28;20036;-89
2022/08/08 11:25:27;;;;;;;2.10;0.93;;;;;;;31.89;26.12;102712.41;5057870;28;20032;-87
2022/08/08 11:27:54;;;;;;;3.45;1.13;;;;;;;31.94;25.30;102711.13;5066191;28;20036;-95
2022/08/08 11:30:23;;;;;;;3.75;1.05;;;;;;;32.02;25.19;102713.50;5065724;28;20514;-87
2022/08/08 11:32:53;;;;;;;2.03;0.90;;;;;;;32.11;25.00;102712.22;5074388;28;20025;-85
2022/08/08 11:35:20;;;;;;;4.55;1.10;;;;;;;32.18;24.89;102715.81;5078371;28;20079;-84
2022/08/08 11:37:46;;;;;;;4.32;1.20;;;;;;;32.10;25.14;102713.44;5058869;28;20639;-86
2022/08/08 11:40:13;;;;;;;187.00;29.00;;;;;;;32.16;25.12;102715.41;5054219;28;20025;-88
2022/08/08 11:42:41;;;;;;;551.58;95.97;;;;;;;32.24;24.85;102719.00;5054757;28;20097;-85
2022/08/08 11:45:08;;;;;;;337.38;59.05;;;;;;;32.35;24.86;102716.13;5054381;28;20024;-84
2022/08/08 11:47:34;;;;;;;18.20;3.75;;;;;;;32.52;24.50;102710.31;5054356;28;20123;-89
2022/08/08 11:50:05;;;;;;;288.55;44.28;;;;;;;32.30;24.59;102711.69;5054361;28;20393;-84
2022/08/08 11:52:32;;;;;;;36.65;6.47;;;;;;;32.52;25.08;102713.13;5054407;28;20078;-84
2022/08/08 11:54:57;;;;;;;4.55;1.40;;;;;;;32.40;24.51;102710.81;5054476;28;20023;-85
2022/08/08 11:57:28;;;;;;;33.28;5.18;;;;;;;32.71;24.25;102703.22;5054283;28;20547;-88
2022/08/08 11:59:56;;;;;;;20.25;3.33;;;;;;;32.66;24.19;102709.38;5070700;28;20023;-91
2022/08/08 12:02:24;;;;;;;29.08;3.63;;;;;;;32.54;24.20;102704.22;5093266;28;20024;-87